PWSweather.com
Personal Weather Stations
Station Observations
ABQWX
Albuquerque, NM 87110

Albuquerque, NM 87110

Lat: 35.1305, Lon: -106.58571

Elevation: 5210

Station Type: LaCrosse

http://www.albuquerqueweather.info/

High Low Average
Temperature 94.1°F34.5°C 68.0°F20.0°C 79.3°F26.3°C
Dew Point 60.0°F15.6°C 52.7°F11.5°C 56.5°F13.6°C
Winds 6.6 mph 10.6 kmh 0.6 mph 1.0 kmh 4.0 mph SSW6.4 kmh SSW
Wind Gusts 13.4 mph21.6 kmh 1.3 mph2.1 kmh 7.0 mph11.3 kmh
Humidity 64% 27% 48%
Pressure 30.32 in1026.8 mb 30.19 in1022.4 mb -
Precipitation 0.00 in0.0 mm - -
Hour Temp Dew Point Humidity Winds Wind Gusts Pressure Precip Precip Rate Daily Precip Total
12:00 AM 72.9°F22.7°C 58.2°F14.6°C 60% 3.6 mph NW5.8 kmh NW 6.3 mph10.1 kmh 30.25 in1024.4 mb 0.00 in0.0 mm 0.00 in/hr0.0 mm/hr 0.00 in0.0 mm
01:00 AM 71.6°F22.0°C 57.0°F13.9°C 60% 1.5 mph SW2.4 kmh SW 3.6 mph5.8 kmh 30.26 in1024.7 mb 0.00 in0.0 mm 0.00 in/hr0.0 mm/hr 0.00 in0.0 mm
02:00 AM 72.3°F22.4°C 57.7°F14.3°C 60% 4.8 mph NNW7.7 kmh NNW 9.4 mph15.1 kmh 30.26 in1024.7 mb 0.00 in0.0 mm 0.00 in/hr0.0 mm/hr 0.00 in0.0 mm
03:00 AM 70.9°F21.6°C 56.3°F13.5°C 60% 5.8 mph NW9.3 kmh NW 12.8 mph20.6 kmh 30.26 in1024.7 mb 0.00 in0.0 mm 0.00 in/hr0.0 mm/hr 0.00 in0.0 mm
04:00 AM 70.2°F21.2°C 55.6°F13.1°C 60% 4.6 mph N7.4 kmh N 6.0 mph9.7 kmh 30.26 in1024.7 mb 0.00 in0.0 mm 0.00 in/hr0.0 mm/hr 0.00 in0.0 mm
05:00 AM 69.4°F20.8°C 55.4°F13.0°C 61% 2.0 mph NW3.2 kmh NW 4.7 mph7.6 kmh 30.27 in1025.1 mb 0.00 in0.0 mm 0.00 in/hr0.0 mm/hr 0.00 in0.0 mm
06:00 AM 68.4°F20.2°C 55.3°F12.9°C 63% 1.6 mph W2.6 kmh W 3.4 mph5.5 kmh 30.28 in1025.4 mb 0.00 in0.0 mm 0.00 in/hr0.0 mm/hr 0.00 in0.0 mm
07:00 AM 68.0°F20.0°C 55.4°F13.0°C 64% 1.2 mph SW1.9 kmh SW 2.7 mph4.3 kmh 30.30 in1026.1 mb 0.00 in0.0 mm 0.00 in/hr0.0 mm/hr 0.00 in0.0 mm
08:00 AM 70.9°F21.6°C 55.8°F13.2°C 59% 2.6 mph ESE4.2 kmh ESE 8.1 mph13.0 kmh 30.32 in1026.8 mb 0.00 in0.0 mm 0.00 in/hr0.0 mm/hr 0.00 in0.0 mm
09:00 AM 74.7°F23.7°C 55.9°F13.3°C 52% 6.1 mph ESE9.8 kmh ESE 9.4 mph15.1 kmh 30.31 in1026.4 mb 0.00 in0.0 mm 0.00 in/hr0.0 mm/hr 0.00 in0.0 mm
10:00 AM 78.6°F25.9°C 56.7°F13.7°C 47% 4.7 mph ESE7.6 kmh ESE 7.6 mph12.2 kmh 30.32 in1026.8 mb 0.00 in0.0 mm 0.00 in/hr0.0 mm/hr 0.00 in0.0 mm
11:00 AM 82.8°F28.2°C 58.6°F14.8°C 44% 3.6 mph SSW5.8 kmh SSW 7.6 mph12.2 kmh 30.31 in1026.4 mb 0.00 in0.0 mm 0.00 in/hr0.0 mm/hr 0.00 in0.0 mm
12:00 PM 87.3°F30.7°C 60.0°F15.6°C 40% 4.1 mph SSW6.6 kmh SSW 7.2 mph11.6 kmh 30.30 in1026.1 mb 0.00 in0.0 mm 0.00 in/hr0.0 mm/hr 0.00 in0.0 mm
01:00 PM 87.4°F30.8°C 58.0°F14.4°C 37% 3.0 mph SW4.8 kmh SW 4.9 mph7.9 kmh 30.29 in1025.7 mb 0.00 in0.0 mm 0.00 in/hr0.0 mm/hr 0.00 in0.0 mm
02:00 PM 88.9°F31.6°C 56.9°F13.8°C 34% 4.2 mph WSW6.8 kmh WSW 9.2 mph14.8 kmh 30.26 in1024.7 mb 0.00 in0.0 mm 0.00 in/hr0.0 mm/hr 0.00 in0.0 mm
03:00 PM 92.3°F33.5°C 57.3°F14.1°C 31% 3.8 mph SSW6.1 kmh SSW 7.6 mph12.2 kmh 30.23 in1023.7 mb 0.00 in0.0 mm 0.00 in/hr0.0 mm/hr 0.00 in0.0 mm
04:00 PM 94.1°F34.5°C 57.0°F13.9°C 29% 4.7 mph SSW7.6 kmh SSW 8.1 mph13.0 kmh 30.21 in1023.0 mb 0.00 in0.0 mm 0.00 in/hr0.0 mm/hr 0.00 in0.0 mm
05:00 PM 93.6°F34.2°C 54.6°F12.6°C 27% 6.6 mph SW10.6 kmh SW 11.0 mph17.7 kmh 30.20 in1022.7 mb 0.00 in0.0 mm 0.00 in/hr0.0 mm/hr 0.00 in0.0 mm
06:00 PM 92.5°F33.6°C 55.6°F13.1°C 29% 6.5 mph SW10.5 kmh SW 10.5 mph16.9 kmh 30.19 in1022.4 mb 0.00 in0.0 mm 0.00 in/hr0.0 mm/hr 0.00 in0.0 mm
07:00 PM 88.0°F31.1°C 52.7°F11.5°C 30% 3.9 mph SW6.3 kmh SW 6.5 mph10.5 kmh 30.19 in1022.4 mb 0.00 in0.0 mm 0.00 in/hr0.0 mm/hr 0.00 in0.0 mm
08:00 PM 81.7°F27.6°C 54.3°F12.4°C 39% 6.3 mph SE10.1 kmh SE 13.4 mph21.6 kmh 30.21 in1023.0 mb 0.00 in0.0 mm 0.00 in/hr0.0 mm/hr 0.00 in0.0 mm
09:00 PM 75.2°F24.0°C 57.4°F14.1°C 54% 5.1 mph E8.2 kmh E 6.7 mph10.8 kmh 30.23 in1023.7 mb 0.00 in0.0 mm 0.00 in/hr0.0 mm/hr 0.00 in0.0 mm
10:00 PM 75.4°F24.1°C 56.5°F13.6°C 52% 0.6 mph SE1.0 kmh SE 1.3 mph2.1 kmh 30.24 in1024.0 mb 0.00 in0.0 mm 0.00 in/hr0.0 mm/hr 0.00 in0.0 mm
11:00 PM 75.2°F24.0°C 56.9°F13.8°C 53% 1.1 mph S1.8 kmh S 2.5 mph4.0 kmh 30.25 in1024.4 mb 0.00 in0.0 mm 0.00 in/hr0.0 mm/hr 0.00 in0.0 mm